Time;durP1;ratioP1;P1;durP2;ratioP2;P2;SDS_P1;SDS_P2;PMS_P1;PMS_P2;Temp;Humidity;BMP_temperature;BMP_pressure;BME280_temperature;BME280_humidity;BME280_pressure;Samples;Min_cycle;Max_cycle;Signal;HPM_P1;HPM_P2
2024/01/18 00:01:05;;;;;;;;;;;;;;;0.28;87.66;98454.34;4196406;28;20418;-70
2024/01/18 00:03:07;;;;;;;;;;;;;;;0.28;87.73;98447.22;4195180;28;20019;-70
2024/01/18 00:05:10;;;;;;;;;;;;;;;0.29;87.49;98450.69;4196050;28;20031;-70
2024/01/18 00:07:14;;;;;;;;;;;;;;;0.27;87.32;98447.38;4196196;28;20015;-70
2024/01/18 00:09:16;;;;;;;;;;;;;;;0.26;86.83;98457.16;4196075;28;19928;-70
2024/01/18 00:11:20;;;;;;;;;;;;;;;0.25;86.52;98454.66;4195115;28;20011;-70
2024/01/18 00:13:22;;;;;;;;;;;;;;;0.26;86.17;98459.00;4196117;28;20016;-70
2024/01/18 00:15:24;;;;;;;;;;;;;;;0.24;85.91;98455.69;4196055;28;20461;-70
2024/01/18 00:17:26;;;;;;;;;;;;;;;0.24;85.58;98461.81;4196039;28;19999;-70
2024/01/18 00:19:28;;;;;;;;;;;;;;;0.24;85.42;98463.66;4194207;28;20039;-70
2024/01/18 00:21:32;;;;;;;;;;;;;;;0.24;85.08;98461.00;4177519;28;20391;-70
2024/01/18 00:23:33;;;;;;;;;;;;;;;0.23;84.72;98477.91;4196621;28;20019;-70
2024/01/18 00:25:35;;;;;;;;;;;;;;;0.22;84.63;98474.44;4196567;28;20011;-70
2024/01/18 00:27:37;;;;;;;;;;;;;;;0.21;84.40;98479.91;4196147;28;20450;-70
2024/01/18 00:29:39;;;;;;;;;;;;;;;0.21;84.28;98493.19;4196222;28;19928;-70
2024/01/18 00:31:41;;;;;;;;;;;;;;;0.20;83.94;98502.94;4196213;28;20003;-70
2024/01/18 00:33:42;;;;;;;;;;;;;;;0.21;83.97;98509.13;4195906;28;20023;-70
2024/01/18 00:35:44;;;;;;;;;;;;;;;0.20;83.65;98505.59;4177924;28;20437;-70
2024/01/18 00:37:46;;;;;;;;;;;;;;;0.20;83.47;98500.31;4196059;28;20086;-70
2024/01/18 00:39:48;;;;;;;;;;;;;;;0.19;83.45;98503.97;4195592;28;20032;-70
2024/01/18 00:41:50;;;;;;;;;;;;;;;0.18;83.53;98508.44;4195922;28;20019;-70
2024/01/18 00:43:54;;;;;;;;;;;;;;;0.18;83.51;98511.09;4195603;28;20019;-70
2024/01/18 00:45:55;;;;;;;;;;;;;;;0.17;83.30;98514.75;4153922;28;20487;-70
2024/01/18 00:47:57;;;;;;;;;;;;;;;0.16;83.32;98522.88;4195871;28;20030;-70
2024/01/18 00:49:59;;;;;;;;;;;;;;;0.16;83.15;98528.19;4195144;28;19970;-70
2024/01/18 00:52:02;;;;;;;;;;;;;;;0.14;83.19;98531.00;4195098;28;20373;-70
2024/01/18 00:54:04;;;;;;;;;;;;;;;0.14;82.93;98536.31;4193521;28;20019;-70
2024/01/18 00:56:09;;;;;;;;;;;;;;;0.14;82.82;98538.13;4194794;28;20023;-70
2024/01/18 00:58:11;;;;;;;;;;;;;;;0.15;83.13;98545.09;4195679;28;19963;-70
2024/01/18 01:00:15;;;;;;;;;;;;;;;0.14;83.06;98546.09;4195767;28;20015;-70
2024/01/18 01:02:16;;;;;;;;;;;;;;;0.13;82.96;98547.91;4195333;28;20051;-70
2024/01/18 01:04:18;;;;;;;;;;;;;;;0.12;82.67;98546.25;4195251;28;19929;-71
2024/01/18 01:06:20;;;;;;;;;;;;;;;0.13;82.92;98560.38;4195495;28;20014;-70
2024/01/18 01:08:22;;;;;;;;;;;;;;;0.11;82.52;98547.25;4195777;28;20027;-70
2024/01/18 01:10:24;;;;;;;;;;;;;;;0.11;82.61;98549.06;4194846;28;20397;-70
2024/01/18 01:12:25;;;;;;;;;;;;;;;0.10;82.48;98545.59;4195201;28;20036;-70
2024/01/18 01:14:27;;;;;;;;;;;;;;;0.09;82.15;98551.88;4196722;28;20032;-70
2024/01/18 01:16:30;;;;;;;;;;;;;;;0.09;82.15;98556.38;4198687;28;20019;-70
2024/01/18 01:18:33;;;;;;;;;;;;;;;0.08;81.70;98558.22;4198719;28;20016;-70
2024/01/18 01:20:34;;;;;;;;;;;;;;;0.08;81.52;98573.28;4198824;28;20016;-70
2024/01/18 01:22:36;;;;;;;;;;;;;;;0.08;81.38;98568.81;4198694;28;20368;-70
2024/01/18 01:24:38;;;;;;;;;;;;;;;0.08;81.19;98579.44;4198736;28;19924;-71
2024/01/18 01:26:40;;;;;;;;;;;;;;;0.07;81.06;98576.94;4198469;28;20023;-70
2024/01/18 01:28:42;;;;;;;;;;;;;;;0.06;81.03;98581.41;4198210;28;20030;-70
2024/01/18 01:30:44;;;;;;;;;;;;;;;0.07;80.91;98579.59;4198112;28;20011;-70
2024/01/18 01:32:47;;;;;;;;;;;;;;;0.07;80.90;98583.06;4198685;28;20449;-70
2024/01/18 01:34:48;;;;;;;;;;;;;;;0.07;80.88;98580.44;4198585;28;20036;-70
2024/01/18 01:36:51;;;;;;;;;;;;;;;0.07;80.87;98584.91;4198672;28;20030;-70
2024/01/18 01:38:53;;;;;;;;;;;;;;;0.07;80.45;98582.25;4198416;28;20386;-70
2024/01/18 01:40:55;;;;;;;;;;;;;;;0.06;80.41;98583.25;4197746;28;20059;-70
2024/01/18 01:42:57;;;;;;;;;;;;;;;0.08;80.44;98586.56;4197920;28;20392;-70
2024/01/18 01:44:58;;;;;;;;;;;;;;;0.07;80.51;98587.56;4198806;28;20551;-70
2024/01/18 01:47:00;;;;;;;;;;;;;;;0.07;80.41;98592.88;4198174;28;19924;-70
2024/01/18 01:49:03;;;;;;;;;;;;;;;0.07;80.03;98609.63;4198162;28;20039;-70
2024/01/18 01:51:05;;;;;;;;;;;;;;;0.07;80.20;98614.09;4198175;28;19931;-70
2024/01/18 01:53:07;;;;;;;;;;;;;;;0.07;80.05;98614.09;4198517;28;20019;-70
2024/01/18 01:55:09;;;;;;;;;;;;;;;0.07;79.68;98614.94;4198128;28;20031;-70
2024/01/18 01:57:11;;;;;;;;;;;;;;;0.07;79.81;98620.25;4197986;28;20045;-70
2024/01/18 01:59:17;;;;;;;;;;;;;;;0.06;79.53;98615.09;4180118;28;20017;-70
2024/01/18 02:01:18;;;;;;;;;;;;;;;0.06;79.89;98620.41;4197888;28;20362;-70
2024/01/18 02:03:20;;;;;;;;;;;;;;;0.06;79.56;98623.88;4198056;28;20015;-70
2024/01/18 02:05:22;;;;;;;;;;;;;;;0.06;79.44;98623.06;4198220;28;20011;-70
2024/01/18 02:07:24;;;;;;;;;;;;;;;0.06;79.43;98623.06;4198315;28;20015;-70
2024/01/18 02:09:26;;;;;;;;;;;;;;;0.05;79.31;98619.59;4180230;28;20031;-70
2024/01/18 02:11:28;;;;;;;;;;;;;;;0.05;79.22;98624.03;4197077;28;19968;-70
2024/01/18 02:13:30;;;;;;;;;;;;;;;0.04;79.36;98628.53;4197517;28;20000;-70
2024/01/18 02:15:32;;;;;;;;;;;;;;;0.03;79.40;98620.72;4198191;28;20012;-70
2024/01/18 02:17:34;;;;;;;;;;;;;;;0.03;79.22;98624.19;4197653;28;20023;-70
2024/01/18 02:19:35;;;;;;;;;;;;;;;0.03;79.21;98634.00;4197211;28;20031;-70
2024/01/18 02:21:39;;;;;;;;;;;;;;;0.03;79.00;98631.34;4198025;28;20722;-70
2024/01/18 02:23:41;;;;;;;;;;;;;;;0.02;79.13;98627.00;4197254;28;20018;-70
2024/01/18 02:25:44;;;;;;;;;;;;;;;0.00;79.03;98624.56;4197227;28;20028;-70
2024/01/18 02:27:45;;;;;;;;;;;;;;;0.00;79.13;98629.84;4197717;28;20501;-70
2024/01/18 02:29:47;;;;;;;;;;;;;;;0.00;79.24;98637.81;4197866;28;19928;-70
2024/01/18 02:31:49;;;;;;;;;;;;;;;0.00;78.96;98640.47;4197575;28;20015;-70
2024/01/18 02:33:50;;;;;;;;;;;;;;;-0.01;78.93;98650.25;4197291;28;20027;-70
2024/01/18 02:35:52;;;;;;;;;;;;;;;-0.01;79.03;98644.94;4179116;28;20387;-70
2024/01/18 02:37:55;;;;;;;;;;;;;;;0.00;79.19;98651.09;4196629;28;20011;-71
2024/01/18 02:39:57;;;;;;;;;;;;;;;0.01;79.01;98646.59;4197301;28;20331;-70
2024/01/18 02:42:00;;;;;;;;;;;;;;;0.00;78.93;98648.44;4196701;28;20015;-70
2024/01/18 02:44:02;;;;;;;;;;;;;;;-0.02;79.00;98648.59;4198020;28;20466;-70
2024/01/18 02:46:04;;;;;;;;;;;;;;;-0.02;79.07;98651.25;4197682;28;20019;-70
2024/01/18 02:48:06;;;;;;;;;;;;;;;-0.01;78.88;98646.75;4197046;28;20364;-70
2024/01/18 02:50:09;;;;;;;;;;;;;;;-0.02;78.87;98664.53;4197199;28;20023;-70
2024/01/18 02:52:11;;;;;;;;;;;;;;;-0.03;78.75;98657.53;4197616;28;20868;-70
2024/01/18 02:54:13;;;;;;;;;;;;;;;-0.04;78.75;98663.81;4195567;28;20011;-70
2024/01/18 02:56:15;;;;;;;;;;;;;;;-0.03;79.03;98664.69;4197757;28;20457;-70
2024/01/18 02:58:18;;;;;;;;;;;;;;;-0.04;78.75;98661.16;4195824;28;20019;-70
2024/01/18 03:00:20;;;;;;;;;;;;;;;-0.04;78.77;98665.66;4197899;28;19963;-70
2024/01/18 03:02:22;;;;;;;;;;;;;;;-0.05;78.79;98656.88;4197959;28;20024;-70
2024/01/18 03:04:23;;;;;;;;;;;;;;;-0.05;78.89;98662.19;4196648;28;20027;-70
2024/01/18 03:06:25;;;;;;;;;;;;;;;-0.06;79.02;98663.16;4196399;28;20011;-70
2024/01/18 03:08:27;;;;;;;;;;;;;;;-0.05;78.89;98661.34;4197018;28;20015;-70
2024/01/18 03:10:28;;;;;;;;;;;;;;;-0.06;78.92;98667.66;4196188;28;20011;-70
2024/01/18 03:12:30;;;;;;;;;;;;;;;-0.06;78.95;98667.66;4196431;28;19951;-70
2024/01/18 03:14:32;;;;;;;;;;;;;;;-0.06;78.90;98667.66;4196294;28;20019;-70
2024/01/18 03:16:36;;;;;;;;;;;;;;;-0.06;78.51;98672.97;4196196;28;20023;-69
2024/01/18 03:18:38;;;;;;;;;;;;;;;-0.06;78.46;98681.75;4178599;28;19991;-70
2024/01/18 03:20:42;;;;;;;;;;;;;;;-0.06;78.64;98684.41;4195651;28;20014;-70
2024/01/18 03:22:44;;;;;;;;;;;;;;;-0.06;78.57;98692.34;4195730;28;20023;-70
2024/01/18 03:24:46;;;;;;;;;;;;;;;-0.06;78.65;98696.84;4195489;28;20052;-70
2024/01/18 03:26:48;;;;;;;;;;;;;;;-0.08;78.28;98694.34;4195636;28;20032;-70
2024/01/18 03:28:50;;;;;;;;;;;;;;;-0.07;78.62;98690.69;4194576;28;20039;-70
2024/01/18 03:30:54;;;;;;;;;;;;;;;-0.06;78.44;98697.66;4195821;28;20112;-70
2024/01/18 03:32:56;;;;;;;;;;;;;;;-0.05;78.65;98706.44;4195551;28;20019;-70
2024/01/18 03:34:57;;;;;;;;;;;;;;;-0.04;78.46;98710.78;4195314;28;20023;-70
2024/01/18 03:36:59;;;;;;;;;;;;;;;-0.04;78.27;98711.59;4195312;28;19925;-70
2024/01/18 03:39:01;;;;;;;;;;;;;;;-0.04;78.29;98714.25;4195353;28;20015;-69
2024/01/18 03:41:03;;;;;;;;;;;;;;;-0.05;78.06;98702.00;4195498;28;20019;-70
2024/01/18 03:43:05;;;;;;;;;;;;;;;-0.05;78.19;98703.78;4195646;28;20026;-70
2024/01/18 03:45:07;;;;;;;;;;;;;;;-0.05;78.26;98707.31;4195124;28;20363;-70
2024/01/18 03:47:10;;;;;;;;;;;;;;;-0.05;78.17;98706.44;4196023;28;20031;-70
2024/01/18 03:49:12;;;;;;;;;;;;;;;-0.06;78.15;98713.59;4195353;28;21237;-70
2024/01/18 03:51:14;;;;;;;;;;;;;;;-0.05;78.18;98730.34;4195388;28;20019;-70
2024/01/18 03:53:16;;;;;;;;;;;;;;;-0.06;77.74;98724.19;4195277;28;19924;-70
2024/01/18 03:55:18;;;;;;;;;;;;;;;-0.07;77.96;98727.84;4195853;28;20019;-70
2024/01/18 03:57:20;;;;;;;;;;;;;;;-0.07;78.02;98733.13;4195374;28;20007;-70
2024/01/18 03:59:23;;;;;;;;;;;;;;;-0.07;77.86;98738.44;4195130;28;20043;-70
2024/01/18 04:01:25;;;;;;;;;;;;;;;-0.05;78.22;98736.50;4194707;28;20024;-70
2024/01/18 04:03:29;;;;;;;;;;;;;;;-0.04;77.90;98747.94;4130166;28;1838396;-70
2024/01/18 04:05:31;;;;;;;;;;;;;;;-0.06;78.01;98753.41;4196166;28;20027;-70
2024/01/18 04:07:33;;;;;;;;;;;;;;;-0.07;78.02;98759.69;4196087;28;19987;-70
2024/01/18 04:09:34;;;;;;;;;;;;;;;-0.06;77.82;98760.53;4195512;28;20385;-70
2024/01/18 04:11:35;;;;;;;;;;;;;;;-0.06;77.81;98763.19;4193937;28;19928;-70
2024/01/18 04:13:37;;;;;;;;;;;;;;;-0.08;78.02;98755.38;4195598;28;20469;-70
2024/01/18 04:15:39;;;;;;;;;;;;;;;-0.08;78.11;98760.69;4195310;28;19935;-70
2024/01/18 04:17:41;;;;;;;;;;;;;;;-0.08;78.27;98760.69;4195856;28;20020;-70
2024/01/18 04:19:45;;;;;;;;;;;;;;;-0.08;78.01;98760.69;4195570;28;20012;-70
2024/01/18 04:21:47;;;;;;;;;;;;;;;-0.10;77.95;98767.94;4195605;28;20477;-70
2024/01/18 04:23:48;;;;;;;;;;;;;;;-0.10;78.04;98770.59;4196071;28;20035;-70
2024/01/18 04:25:51;;;;;;;;;;;;;;;-0.10;78.22;98778.56;4195577;28;19925;-70
2024/01/18 04:27:53;;;;;;;;;;;;;;;-0.09;78.16;98777.59;4194167;28;20011;-70
2024/01/18 04:29:55;;;;;;;;;;;;;;;-0.09;78.56;98774.13;4195413;28;20031;-70
2024/01/18 04:31:57;;;;;;;;;;;;;;;-0.10;78.32;98783.88;4195840;28;19996;-70
2024/01/18 04:33:59;;;;;;;;;;;;;;;-0.10;78.34;98783.06;4195968;28;20447;-70
2024/01/18 04:36:03;;;;;;;;;;;;;;;-0.10;78.07;98780.41;4194755;28;20023;-70
2024/01/18 04:38:05;;;;;;;;;;;;;;;-0.10;78.28;98788.38;4195665;28;20020;-70
2024/01/18 04:40:08;;;;;;;;;;;;;;;-0.11;78.07;98784.03;4195405;28;20024;-70
2024/01/18 04:42:10;;;;;;;;;;;;;;;-0.11;78.09;98779.56;4195585;28;20023;-70
2024/01/18 04:44:13;;;;;;;;;;;;;;;-0.11;78.28;98794.66;4194866;28;20061;-70
2024/01/18 04:46:15;;;;;;;;;;;;;;;-0.11;78.32;98782.22;4194035;28;20007;-70
2024/01/18 04:48:17;;;;;;;;;;;;;;;-0.12;78.45;98785.88;4194363;28;20019;-70
2024/01/18 04:50:20;;;;;;;;;;;;;;;-0.12;78.47;98788.53;4193953;28;20668;-70
2024/01/18 04:52:23;;;;;;;;;;;;;;;-0.11;78.59;98792.84;4195376;28;20028;-70
2024/01/18 04:54:25;;;;;;;;;;;;;;;-0.11;78.81;98800.81;4195346;28;20368;-70
2024/01/18 04:56:28;;;;;;;;;;;;;;;-0.12;78.48;98803.63;4195638;28;20462;-70
2024/01/18 04:58:30;;;;;;;;;;;;;;;-0.11;78.37;98789.34;4195607;28;20028;-70
2024/01/18 05:00:32;;;;;;;;;;;;;;;-0.12;78.58;98777.09;4195078;28;20372;-70
2024/01/18 05:02:33;;;;;;;;;;;;;;;-0.14;78.66;98785.19;4195529;28;20026;-70
2024/01/18 05:04:35;;;;;;;;;;;;;;;-0.14;78.58;98790.50;4194170;28;19924;-70
2024/01/18 05:06:37;;;;;;;;;;;;;;;-0.15;78.51;98794.13;4192341;28;20490;-70
2024/01/18 05:08:39;;;;;;;;;;;;;;;-0.16;78.48;98795.13;4195291;28;20437;-70
2024/01/18 05:10:41;;;;;;;;;;;;;;;-0.16;78.53;98789.81;4194696;28;19928;-70
2024/01/18 05:12:44;;;;;;;;;;;;;;;-0.14;78.67;98779.03;4176318;28;20015;-70
2024/01/18 05:14:45;;;;;;;;;;;;;;;-0.16;78.56;98784.50;4193737;28;19932;-70
2024/01/18 05:16:51;;;;;;;;;;;;;;;-0.16;78.35;98786.34;4194578;28;20007;-70
2024/01/18 05:18:53;;;;;;;;;;;;;;;-0.17;78.71;98793.47;4193499;28;20024;-70
2024/01/18 05:20:54;;;;;;;;;;;;;;;-0.17;78.50;98798.78;4195051;28;20016;-70
2024/01/18 05:22:55;;;;;;;;;;;;;;;-0.19;78.50;98798.06;4195783;28;19928;-70
2024/01/18 05:24:59;;;;;;;;;;;;;;;-0.20;78.73;98794.59;4194888;28;20019;-70
2024/01/18 05:27:01;;;;;;;;;;;;;;;-0.19;78.82;98790.13;4195408;28;20059;-70
2024/01/18 05:29:03;;;;;;;;;;;;;;;-0.20;78.86;98797.25;4194237;28;20015;-70
2024/01/18 05:31:05;;;;;;;;;;;;;;;-0.22;79.00;98795.75;4195319;28;20019;-70
2024/01/18 05:33:07;;;;;;;;;;;;;;;-0.25;79.29;98794.25;4195749;28;20021;-71
2024/01/18 05:35:09;;;;;;;;;;;;;;;-0.28;79.00;98783.09;4195277;28;19932;-71
2024/01/18 05:37:11;;;;;;;;;;;;;;;-0.27;79.36;98790.91;4194857;28;20014;-70
2024/01/18 05:39:13;;;;;;;;;;;;;;;-0.27;79.41;98813.94;4195610;28;20011;-69
2024/01/18 05:41:16;;;;;;;;;;;;;;;-0.26;79.70;98842.97;4194426;28;20020;-69
2024/01/18 05:43:18;;;;;;;;;;;;;;;-0.27;79.68;98874.97;4195680;28;20028;-70
2024/01/18 05:45:20;;;;;;;;;;;;;;;-0.26;80.13;98874.00;4195659;28;20003;-69
2024/01/18 05:47:22;;;;;;;;;;;;;;;-0.26;79.98;98866.84;4196021;28;20020;-70
2024/01/18 05:49:23;;;;;;;;;;;;;;;-0.26;79.95;98856.25;4194564;28;20450;-72
2024/01/18 05:51:25;;;;;;;;;;;;;;;-0.25;79.71;98860.56;4192868;28;19928;-71
2024/01/18 05:53:29;;;;;;;;;;;;;;;-0.25;79.64;98871.19;4169900;28;19967;-69
2024/01/18 05:55:32;;;;;;;;;;;;;;;-0.26;79.58;98872.16;4194765;28;20042;-72
2024/01/18 05:57:37;;;;;;;;;;;;;;;-0.27;79.57;98865.19;4194747;28;20015;-71
2024/01/18 05:59:39;;;;;;;;;;;;;;;-0.25;79.85;98872.97;4195010;28;20015;-71
2024/01/18 06:01:41;;;;;;;;;;;;;;;-0.25;79.80;98879.16;4197844;28;20019;-69
2024/01/18 06:03:43;;;;;;;;;;;;;;;-0.26;79.44;98895.22;4197892;28;20032;-71
2024/01/18 06:05:45;;;;;;;;;;;;;;;-0.26;79.57;98903.19;4197818;28;20044;-72
2024/01/18 06:07:47;;;;;;;;;;;;;;;-0.26;79.29;98904.00;4197145;28;20020;-72
2024/01/18 06:09:48;;;;;;;;;;;;;;;-0.27;79.57;98902.31;4196648;28;20587;-72
2024/01/18 06:11:50;;;;;;;;;;;;;;;-0.28;79.53;98900.69;4196907;28;19982;-72
2024/01/18 06:13:53;;;;;;;;;;;;;;;-0.27;79.35;98901.50;4197131;28;20019;-72
2024/01/18 06:15:55;;;;;;;;;;;;;;;-0.27;79.37;98906.81;4195048;28;19960;-72
2024/01/18 06:18:03;;;;;;;;;;;;;;;-0.31;79.37;98903.63;4197170;28;20015;-69
2024/01/18 06:20:06;;;;;;;;;;;;;;;-0.31;79.50;98908.09;4195933;28;20055;-72
2024/01/18 06:22:07;;;;;;;;;;;;;;;-0.32;79.56;98909.91;4197465;28;20023;-71
2024/01/18 06:24:09;;;;;;;;;;;;;;;-0.33;79.61;98905.63;4197446;28;19955;-72
2024/01/18 06:26:11;;;;;;;;;;;;;;;-0.35;79.65;98912.03;4195525;28;20020;-72
2024/01/18 06:28:13;;;;;;;;;;;;;;;-0.35;79.95;98920.00;4194999;28;20684;-70
2024/01/18 06:30:18;;;;;;;;;;;;;;;-0.36;80.06;98924.47;4196026;28;20035;-69
2024/01/18 06:32:20;;;;;;;;;;;;;;;-0.36;80.13;98943.06;4195378;28;20011;-70
2024/01/18 06:34:21;;;;;;;;;;;;;;;-0.38;80.14;98939.69;4196055;28;20015;-70
2024/01/18 06:36:23;;;;;;;;;;;;;;;-0.38;80.38;98931.75;4195535;28;20026;-71
2024/01/18 06:38:25;;;;;;;;;;;;;;;-0.39;80.27;98927.44;4194676;28;20474;-72
2024/01/18 06:40:27;;;;;;;;;;;;;;;-0.40;80.39;98923.94;4194237;28;20012;-72
2024/01/18 06:42:29;;;;;;;;;;;;;;;-0.41;80.37;98924.94;4195647;28;20003;-72
2024/01/18 06:44:31;;;;;;;;;;;;;;;-0.40;80.34;98921.28;4196115;28;20015;-72
2024/01/18 06:46:34;;;;;;;;;;;;;;;-0.41;80.54;98930.25;4196570;28;20035;-72
2024/01/18 06:48:36;;;;;;;;;;;;;;;-0.40;80.36;98929.22;4195789;28;20339;-72
2024/01/18 06:50:38;;;;;;;;;;;;;;;-0.42;80.50;98944.47;4196342;28;20034;-72
2024/01/18 06:52:40;;;;;;;;;;;;;;;-0.41;80.55;98942.66;4177934;28;20036;-71
2024/01/18 06:54:42;;;;;;;;;;;;;;;-0.44;80.69;98951.75;4196057;28;20457;-72
2024/01/18 06:56:45;;;;;;;;;;;;;;;-0.46;80.83;98952.88;4195881;28;20521;-72
2024/01/18 06:58:46;;;;;;;;;;;;;;;-0.42;80.90;98954.25;4196329;28;20011;-69
2024/01/18 07:00:48;;;;;;;;;;;;;;;-0.41;80.79;98962.06;4196326;28;19985;-72
2024/01/18 07:02:52;;;;;;;;;;;;;;;-0.43;80.73;98964.03;4194792;28;20015;-72
2024/01/18 07:04:54;;;;;;;;;;;;;;;-0.43;80.66;98964.03;4194744;28;20047;-71
2024/01/18 07:06:56;;;;;;;;;;;;;;;-0.43;80.72;98952.59;4195352;28;20027;-72
2024/01/18 07:08:58;;;;;;;;;;;;;;;-0.43;80.73;98941.97;4196358;28;20493;-71
2024/01/18 07:11:01;;;;;;;;;;;;;;;-0.41;80.72;98950.59;4191676;28;21573;-69
2024/01/18 07:13:04;;;;;;;;;;;;;;;-0.42;80.62;98952.44;4193273;28;20460;-71
2024/01/18 07:15:08;;;;;;;;;;;;;;;-0.41;80.59;98962.06;4192040;28;20027;-71
2024/01/18 07:17:10;;;;;;;;;;;;;;;-0.41;80.20;98963.88;4193522;28;19929;-72
2024/01/18 07:19:14;;;;;;;;;;;;;;;-0.40;80.33;98963.72;4194104;28;20107;-71
2024/01/18 07:21:16;;;;;;;;;;;;;;;-0.41;80.21;98959.41;4193555;28;20004;-72
2024/01/18 07:23:18;;;;;;;;;;;;;;;-0.43;80.02;98966.66;4194151;28;20030;-72
2024/01/18 07:25:19;;;;;;;;;;;;;;;-0.42;80.51;98970.19;4193757;28;20027;-72
2024/01/18 07:27:21;;;;;;;;;;;;;;;-0.44;80.39;98961.50;4194505;28;20023;-70
2024/01/18 07:29:23;;;;;;;;;;;;;;;-0.44;80.41;98967.69;4194221;28;20019;-71
2024/01/18 07:31:25;;;;;;;;;;;;;;;-0.44;80.31;98975.63;4194131;28;20419;-71
2024/01/18 07:33:27;;;;;;;;;;;;;;;-0.45;80.39;98981.91;4194612;28;20384;-71
2024/01/18 07:35:30;;;;;;;;;;;;;;;-0.45;80.33;98976.59;4193440;28;20082;-69
2024/01/18 07:37:32;;;;;;;;;;;;;;;-0.45;80.18;98975.78;4195678;28;19928;-70
2024/01/18 07:39:34;;;;;;;;;;;;;;;-0.47;80.13;98978.59;4195413;28;20027;-69
2024/01/18 07:41:36;;;;;;;;;;;;;;;-0.47;80.16;98975.94;4195238;28;20011;-70
2024/01/18 07:43:39;;;;;;;;;;;;;;;-0.46;80.03;98966.16;4194973;28;20469;-69
2024/01/18 07:45:43;;;;;;;;;;;;;;;-0.46;79.98;98974.09;4195301;28;20035;-69
2024/01/18 07:47:44;;;;;;;;;;;;;;;-0.47;79.64;98977.72;4195790;28;20023;-69
2024/01/18 07:49:46;;;;;;;;;;;;;;;-0.47;79.71;98972.41;4194958;28;20015;-69
2024/01/18 07:51:50;;;;;;;;;;;;;;;-0.47;79.88;98975.06;4195104;28;20051;-70
2024/01/18 07:53:51;;;;;;;;;;;;;;;-0.48;79.89;98971.59;4193924;28;20019;-69
2024/01/18 07:55:53;;;;;;;;;;;;;;;-0.47;79.90;98967.97;4195678;28;19931;-68
2024/01/18 07:57:55;;;;;;;;;;;;;;;-0.48;79.82;98965.47;4195404;28;20011;-72
2024/01/18 07:59:57;;;;;;;;;;;;;;;-0.48;79.99;98963.63;4194737;28;20027;-70
2024/01/18 08:01:59;;;;;;;;;;;;;;;-0.47;80.25;98959.16;4194774;28;20015;-71
2024/01/18 08:04:01;;;;;;;;;;;;;;;-0.47;80.16;98964.47;4194641;28;20376;-69
2024/01/18 08:06:03;;;;;;;;;;;;;;;-0.47;80.02;98957.38;4195390;28;20028;-70
2024/01/18 08:08:07;;;;;;;;;;;;;;;-0.46;79.98;98968.78;4195076;28;20019;-70
2024/01/18 08:10:09;;;;;;;;;;;;;;;-0.47;79.90;98977.72;4194354;28;20023;-70
2024/01/18 08:12:11;;;;;;;;;;;;;;;-0.45;80.04;98981.91;4194660;28;20027;-70
2024/01/18 08:14:13;;;;;;;;;;;;;;;-0.45;80.25;98981.91;4194868;28;20019;-70
2024/01/18 08:16:15;;;;;;;;;;;;;;;-0.45;80.08;98981.09;4195021;28;20023;-70
2024/01/18 08:18:17;;;;;;;;;;;;;;;-0.44;80.18;98996.00;4194842;28;20367;-71
2024/01/18 08:20:19;;;;;;;;;;;;;;;-0.43;80.02;98995.84;4194097;28;20015;-70
2024/01/18 08:22:21;;;;;;;;;;;;;;;-0.41;80.33;98988.59;4194379;28;20019;-70
2024/01/18 08:24:25;;;;;;;;;;;;;;;-0.41;79.99;98991.25;4194391;28;20019;-71
2024/01/18 08:26:28;;;;;;;;;;;;;;;-0.39;80.14;98996.41;4195697;28;20055;-70
2024/01/18 08:28:30;;;;;;;;;;;;;;;-0.38;79.99;99003.34;4195281;28;20031;-70
2024/01/18 08:30:32;;;;;;;;;;;;;;;-0.38;79.90;99006.00;4194745;28;20466;-70
2024/01/18 08:32:34;;;;;;;;;;;;;;;-0.37;80.11;99003.22;4195134;28;20036;-70
2024/01/18 08:34:36;;;;;;;;;;;;;;;-0.35;80.20;99007.53;4195109;28;20023;-70
2024/01/18 08:36:38;;;;;;;;;;;;;;;-0.34;79.93;99002.09;4194695;28;20024;-70
2024/01/18 08:38:40;;;;;;;;;;;;;;;-0.32;80.19;99007.25;4194243;28;19924;-70
2024/01/18 08:40:43;;;;;;;;;;;;;;;-0.31;80.14;99004.44;4194803;28;20374;-71
2024/01/18 08:42:46;;;;;;;;;;;;;;;-0.29;80.08;99005.13;4194921;28;20375;-70
2024/01/18 08:44:48;;;;;;;;;;;;;;;-0.28;79.91;99006.78;4195244;28;20022;-70
2024/01/18 08:46:50;;;;;;;;;;;;;;;-0.26;80.09;99010.13;4195038;28;20019;-70
2024/01/18 08:48:52;;;;;;;;;;;;;;;-0.24;80.38;99021.41;4195069;28;20011;-70
2024/01/18 08:50:54;;;;;;;;;;;;;;;-0.22;79.93;99019.47;4194640;28;20019;-70
2024/01/18 08:52:56;;;;;;;;;;;;;;;-0.21;80.17;99017.63;4194706;28;20027;-70
2024/01/18 08:54:58;;;;;;;;;;;;;;;-0.20;79.89;99030.75;4194593;28;20023;-70
2024/01/18 08:57:01;;;;;;;;;;;;;;;-0.18;79.92;99030.59;4193034;28;20477;-70
2024/01/18 08:59:04;;;;;;;;;;;;;;;-0.16;79.85;99030.44;4194480;28;19935;-70
2024/01/18 09:01:06;;;;;;;;;;;;;;;-0.14;80.02;99036.44;4194595;28;20023;-70
2024/01/18 09:03:08;;;;;;;;;;;;;;;-0.13;79.88;99032.81;4193980;28;20019;-70
2024/01/18 09:05:10;;;;;;;;;;;;;;;-0.12;80.11;99037.13;4194782;28;20446;-70
2024/01/18 09:07:11;;;;;;;;;;;;;;;-0.10;79.83;99038.63;4194673;28;20011;-70
2024/01/18 09:09:13;;;;;;;;;;;;;;;-0.08;79.74;99027.88;4194854;28;20478;-70
2024/01/18 09:11:15;;;;;;;;;;;;;;;-0.05;79.64;99048.81;4193427;28;20583;-70
2024/01/18 09:13:19;;;;;;;;;;;;;;;-0.05;79.84;99047.00;4194020;28;20021;-70
2024/01/18 09:15:22;;;;;;;;;;;;;;;-0.04;79.64;99043.34;4194933;28;20866;-70
2024/01/18 09:17:24;;;;;;;;;;;;;;;-0.02;79.50;99054.66;4192160;28;20426;-71
2024/01/18 09:19:26;;;;;;;;;;;;;;;-0.01;79.34;99060.81;4194339;28;20461;-70
2024/01/18 09:21:27;;;;;;;;;;;;;;;0.01;79.59;99060.66;4194619;28;20027;-70
2024/01/18 09:23:29;;;;;;;;;;;;;;;0.03;79.75;99062.16;4176993;28;19929;-70
2024/01/18 09:25:31;;;;;;;;;;;;;;;0.04;79.31;99058.53;4194735;28;20019;-70
2024/01/18 09:27:33;;;;;;;;;;;;;;;0.06;79.46;99071.66;4194597;28;20102;-70
2024/01/18 09:29:36;;;;;;;;;;;;;;;0.07;79.31;99075.97;4194160;28;20015;-70
2024/01/18 09:31:38;;;;;;;;;;;;;;;0.09;79.63;99084.63;4194199;28;20027;-70
2024/01/18 09:33:39;;;;;;;;;;;;;;;0.09;79.48;99085.44;4194433;28;20015;-70
2024/01/18 09:35:41;;;;;;;;;;;;;;;0.11;79.51;99082.63;4194772;28;19924;-70
2024/01/18 09:37:43;;;;;;;;;;;;;;;0.12;79.49;99085.16;4197596;28;20470;-70
2024/01/18 09:39:45;;;;;;;;;;;;;;;0.13;79.61;99086.00;4197561;28;19974;-70
2024/01/18 09:41:49;;;;;;;;;;;;;;;0.16;79.28;99098.97;4196710;28;20019;-71
2024/01/18 09:43:54;;;;;;;;;;;;;;;0.17;79.48;99087.34;4179502;28;19976;-70
2024/01/18 09:45:57;;;;;;;;;;;;;;;0.18;79.37;99097.00;4197825;28;20458;-71
2024/01/18 09:47:59;;;;;;;;;;;;;;;0.18;79.23;99091.69;4197281;28;20020;-71
2024/01/18 09:50:01;;;;;;;;;;;;;;;0.21;79.36;99099.34;4197173;28;20384;-71
2024/01/18 09:52:04;;;;;;;;;;;;;;;0.22;79.51;99103.69;4196721;28;20027;-70
2024/01/18 09:54:07;;;;;;;;;;;;;;;0.24;79.37;99107.00;4196891;28;20446;-70
2024/01/18 09:56:10;;;;;;;;;;;;;;;0.25;79.41;99127.28;4197006;28;20038;-70
2024/01/18 09:58:13;;;;;;;;;;;;;;;0.27;79.61;99122.66;4197023;28;20019;-71
2024/01/18 10:00:14;;;;;;;;;;;;;;;0.28;79.42;99126.97;4171585;28;20485;-70
2024/01/18 10:02:17;;;;;;;;;;;;;;;0.30;79.36;99137.44;4197262;28;20028;-71
2024/01/18 10:04:19;;;;;;;;;;;;;;;0.32;79.25;99130.16;4196954;28;20458;-71
2024/01/18 10:06:21;;;;;;;;;;;;;;;0.33;79.46;99132.66;4170958;28;20027;-70
2024/01/18 10:08:23;;;;;;;;;;;;;;;0.33;79.42;99134.50;4179325;28;20012;-70
2024/01/18 10:10:26;;;;;;;;;;;;;;;0.35;79.38;99136.00;4196444;28;20027;-71
2024/01/18 10:12:29;;;;;;;;;;;;;;;0.37;79.40;99141.16;4196559;28;20031;-70
2024/01/18 10:14:38;;;;;;;;;;;;;;;0.39;79.11;99141.00;4196838;28;20023;-71
2024/01/18 10:16:41;;;;;;;;;;;;;;;0.40;79.20;99140.84;4197122;28;20023;-71
2024/01/18 10:18:45;;;;;;;;;;;;;;;0.41;79.50;99139.03;4196877;28;20028;-70
2024/01/18 10:20:47;;;;;;;;;;;;;;;0.42;79.71;99132.75;4196395;28;20022;-70
2024/01/18 10:22:48;;;;;;;;;;;;;;;0.44;79.71;99141.38;4178932;28;20560;-70
2024/01/18 10:24:50;;;;;;;;;;;;;;;0.45;79.41;99138.56;4196563;28;20087;-70
2024/01/18 10:27:01;;;;;;;;;;;;;;;0.46;79.68;99139.44;4196878;28;19960;-70
2024/01/18 10:29:03;;;;;;;;;;;;;;;0.47;79.35;99133.13;4196715;28;20011;-70
2024/01/18 10:31:05;;;;;;;;;;;;;;;0.48;79.57;99135.63;4196752;28;20446;-71
2024/01/18 10:33:08;;;;;;;;;;;;;;;0.48;79.34;99146.25;4196471;28;20027;-70
2024/01/18 10:35:14;;;;;;;;;;;;;;;0.49;79.53;99149.75;4196649;28;20019;-71
2024/01/18 10:37:16;;;;;;;;;;;;;;;0.49;79.57;99155.06;4196411;28;20019;-71
2024/01/18 10:39:18;;;;;;;;;;;;;;;0.51;79.35;99153.09;4196403;28;20437;-70